Tropical Cyclones
[Index]
Main Index Home Page Stock Weather Photos Extreme Storms Discussion Storm News and Storm Chasing Reports Tropical Cyclones / Hurricanes / Typhoons Weather Data and Links Wild Fires / Bushfires Weather Observation Techniques Weather Picture Catalogue Tornado Pictures and Reports Stock Video Footage and DVDs for sale
Season 1978-1979 Tropical Cyclone IVAN Track Map
Season 1978-1979 Summaries: [BoM-AU] [JTWC-AU] [JTWC-SIO] [JTWC-SPAC] [JTWC-SH]
<<- Previous TC | BoM 1978-1979 Season | Next TC ->>

click for intensity scale information  Lat/long Grid: Show Hide

 Date Labels: Show Hide

Bureau of Meteorology Tropical Cyclone Data

Name: IVAN
Number: 590 / 197879_07

16 Mar 1979 00:00 UTC to 21 Mar 1979 00:00 UTC

    date/time    lat    long    hPa   cat  kts
1979-03-16 00   12.6    91.9    998                     
1979-03-16 06   13.3    91.4    997                     
1979-03-16 12   13.8    91.2    996                     
1979-03-16 18   14.4    91.1    995    1                
1979-03-17 00   15.0    91.0    994    1                
1979-03-17 06   15.7    90.8    993    1                
1979-03-17 12   16.5    90.2    992    1                
1979-03-17 18   17.0    89.7    991    1                
1979-03-18 00   17.3    89.0    990    1                
1979-03-18 06   17.6    88.1    989    1                
1979-03-18 12   18.2    87.3    988    1                
1979-03-18 18   18.8    87.3    988    1                
1979-03-19 00   19.6    86.5    989    1                
1979-03-19 06   20.4    86.1    990    1                
1979-03-19 12   21.1    85.6    991    1                
1979-03-19 18   21.6    85.1    991    1                
1979-03-20 00   22.2    84.2    992    1                
1979-03-20 06   22.6    83.1    993    1                
1979-03-20 12   23.0    82.1    994    1                
1979-03-20 18   23.5    81.4    995    1                
1979-03-21 00   24.1    80.7    996                     
Winds are 10-min average.

Tropical cyclone tracks developed by Michael Bath using data from the Bureau of Meteorology and Google Maps.


[Australian Severe Weather index] [Copyright Notice] [Email Contacts] [Search This Site] [Privacy Policy]
Document: tropical_cyclone_ivan.htm Updated: 30 May 2013